createdAt,value
2018-02-17T00:02:23.492Z,6.91
2018-02-17T00:04:51.035Z,6.49
2018-02-17T00:07:18.600Z,6.63
2018-02-17T00:09:46.196Z,6.93
2018-02-17T00:12:13.750Z,7.24
2018-02-17T00:14:41.344Z,7.43
2018-02-17T00:17:08.898Z,7.45
2018-02-17T00:19:36.434Z,7.54
2018-02-17T00:22:04.029Z,7.62
2018-02-17T00:24:31.636Z,7.57
2018-02-17T00:26:59.750Z,7.70
2018-02-17T00:29:27.331Z,7.81
2018-02-17T00:31:54.907Z,7.95
2018-02-17T00:34:22.447Z,8.01
2018-02-17T00:36:50.470Z,8.04
2018-02-17T00:39:18.043Z,7.93
2018-02-17T00:41:45.642Z,7.87
2018-02-17T00:44:13.200Z,7.97
2018-02-17T00:46:40.792Z,8.04
2018-02-17T00:49:08.397Z,8.09
2018-02-17T00:51:35.952Z,8.03
2018-02-17T00:54:03.939Z,7.91
2018-02-17T00:56:31.544Z,7.84
2018-02-17T00:58:59.095Z,7.87
2018-02-17T01:01:26.649Z,8.01
2018-02-17T01:03:54.252Z,8.11
2018-02-17T01:06:21.791Z,8.09
2018-02-17T01:08:49.339Z,8.11
2018-02-17T01:11:16.921Z,7.80
2018-02-17T01:13:44.483Z,7.29
2018-02-17T01:16:12.085Z,7.12
2018-02-17T01:18:39.634Z,7.41
2018-02-17T01:21:07.228Z,7.66
2018-02-17T01:23:34.766Z,7.68
2018-02-17T01:26:02.560Z,7.75
2018-02-17T01:28:30.121Z,7.92
2018-02-17T01:30:57.678Z,7.96
2018-02-17T01:33:25.280Z,8.07
2018-02-17T01:35:53.005Z,8.16
2018-02-17T01:38:20.552Z,8.20
2018-02-17T01:40:48.142Z,8.31
2018-02-17T01:43:16.121Z,8.35
2018-02-17T01:45:43.695Z,8.27
2018-02-17T01:48:11.243Z,8.29
2018-02-17T01:50:39.166Z,8.24
2018-02-17T01:53:06.734Z,8.20
2018-02-17T01:55:34.337Z,7.94
2018-02-17T01:58:01.894Z,7.98
2018-02-17T02:00:29.437Z,7.68
2018-02-17T02:02:57.043Z,7.51
2018-02-17T02:05:24.589Z,7.07
2018-02-17T02:07:52.182Z,6.85
2018-02-17T02:10:20.045Z,7.09
2018-02-17T02:12:47.615Z,7.31
2018-02-17T02:15:15.211Z,7.50
2018-02-17T02:17:42.755Z,7.60
2018-02-17T02:20:10.928Z,7.54
2018-02-17T02:22:38.535Z,7.56
2018-02-17T02:25:06.520Z,7.64
2018-02-17T02:27:34.223Z,7.65
2018-02-17T02:30:01.819Z,7.68
2018-02-17T02:32:29.368Z,7.76
2018-02-17T02:34:56.913Z,7.73
2018-02-17T02:37:24.503Z,7.48
2018-02-17T02:39:52.092Z,7.34
2018-02-17T02:42:19.649Z,7.40
2018-02-17T02:44:47.256Z,7.41
2018-02-17T02:47:14.791Z,6.94
2018-02-17T02:49:42.748Z,6.99
2018-02-17T02:52:10.334Z,6.98
2018-02-17T02:54:37.884Z,6.78
2018-02-17T02:57:05.476Z,6.94
2018-02-17T02:59:33.628Z,6.85
2018-02-17T03:02:01.206Z,5.82
2018-02-17T03:04:28.800Z,4.76
2018-02-17T03:06:56.681Z,4.24
2018-02-17T03:09:24.265Z,3.92
2018-02-17T03:11:51.861Z,3.79
2018-02-17T03:14:19.412Z,3.81
2018-02-17T03:16:46.950Z,3.84
2018-02-17T03:19:14.518Z,3.76
2018-02-17T03:21:42.102Z,3.73
2018-02-17T03:24:10.088Z,3.37
2018-02-17T03:26:37.670Z,3.28
2018-02-17T03:29:05.720Z,3.46
2018-02-17T03:31:33.289Z,3.37
2018-02-17T03:34:00.887Z,3.49
2018-02-17T03:36:29.165Z,3.58
2018-02-17T03:38:57.060Z,3.83
2018-02-17T03:41:24.601Z,3.51
2018-02-17T03:43:52.182Z,3.26
2018-02-17T03:46:19.778Z,3.54
2018-02-17T03:48:47.322Z,3.75
2018-02-17T03:51:14.861Z,4.11
2018-02-17T03:53:42.596Z,4.63
2018-02-17T03:56:10.173Z,5.06
2018-02-17T03:58:37.713Z,5.44
2018-02-17T04:01:05.294Z,5.78
2018-02-17T04:03:32.878Z,5.89
2018-02-17T04:06:01.234Z,6.02
2018-02-17T04:08:28.839Z,6.13
2018-02-17T04:10:56.402Z,5.67
2018-02-17T04:13:23.982Z,5.59
2018-02-17T04:15:51.558Z,5.55
2018-02-17T04:18:19.154Z,5.37
2018-02-17T04:20:46.749Z,5.27
2018-02-17T04:23:14.298Z,5.66
2018-02-17T04:25:42.166Z,6.04
2018-02-17T04:28:10.061Z,6.29
2018-02-17T04:30:37.613Z,6.50
2018-02-17T04:33:05.462Z,6.27
2018-02-17T04:35:33.006Z,5.95
2018-02-17T04:38:00.568Z,6.16
2018-02-17T04:43:48.530Z,5.13
2018-02-17T04:46:21.553Z,5.73
2018-02-17T04:48:53.620Z,6.24
2018-02-17T04:54:42.955Z,6.33
2018-02-17T05:00:16.381Z,6.29
2018-02-17T05:02:46.784Z,6.11
2018-02-17T05:05:14.394Z,5.99
2018-02-17T05:07:41.970Z,5.86
2018-02-17T05:10:09.587Z,4.97
2018-02-17T05:12:37.184Z,5.15
2018-02-17T05:15:21.546Z,5.36
2018-02-17T05:17:52.140Z,5.61
2018-02-17T05:20:20.464Z,5.74
2018-02-17T05:22:48.091Z,5.75
2018-02-17T05:25:27.033Z,5.99
2018-02-17T05:27:54.948Z,6.17
2018-02-17T05:30:24.861Z,6.31
2018-02-17T05:32:57.829Z,6.31
2018-02-17T05:35:31.297Z,6.40
2018-02-17T05:37:58.949Z,6.50
2018-02-17T05:43:26.470Z,6.64
2018-02-17T05:45:58.118Z,6.69
2018-02-17T05:48:27.362Z,6.84
2018-02-17T05:50:54.983Z,6.80
2018-02-17T05:53:22.522Z,6.76
2018-02-17T05:55:50.102Z,6.96
2018-02-17T05:58:17.735Z,7.16
2018-02-17T06:00:45.387Z,7.36
2018-02-17T06:03:12.978Z,7.45
2018-02-17T06:05:40.569Z,7.52
2018-02-17T06:08:08.673Z,7.84
2018-02-17T06:10:36.263Z,8.41
2018-02-17T06:13:03.871Z,8.56
2018-02-17T06:15:31.414Z,8.78
2018-02-17T06:17:58.967Z,9.18
2018-02-17T06:20:26.555Z,8.44
2018-02-17T06:22:54.106Z,7.62
2018-02-17T06:25:21.690Z,8.30
2018-02-17T06:27:50.345Z,8.68
2018-02-17T06:30:17.938Z,9.08
2018-02-17T06:32:46.444Z,9.56
2018-02-17T06:35:14.047Z,9.96
2018-02-17T06:37:41.594Z,10.26
2018-02-17T06:40:09.152Z,10.45
2018-02-17T06:42:36.759Z,9.94
2018-02-17T06:45:04.307Z,9.67
2018-02-17T06:47:31.859Z,9.51
2018-02-17T06:49:59.512Z,8.70
2018-02-17T06:52:27.048Z,8.50
2018-02-17T06:54:54.604Z,8.93
2018-02-17T06:57:22.213Z,9.12
2018-02-17T06:59:49.827Z,9.13
2018-02-17T07:02:17.420Z,9.22
2018-02-17T07:04:45.010Z,8.80
2018-02-17T07:07:12.714Z,9.01
2018-02-17T07:09:40.370Z,9.08
2018-02-17T07:12:08.198Z,9.36
2018-02-17T07:14:35.978Z,9.70
2018-02-17T07:17:03.518Z,9.85
2018-02-17T07:19:31.080Z,10.21
2018-02-17T07:21:58.688Z,10.30
2018-02-17T07:24:26.847Z,10.32
2018-02-17T07:26:54.524Z,10.55
2018-02-17T07:29:22.102Z,11.01
2018-02-17T07:31:50.058Z,11.27
2018-02-17T07:34:17.652Z,11.28
2018-02-17T07:36:46.335Z,11.38
2018-02-17T07:39:13.898Z,11.14
2018-02-17T07:41:41.970Z,11.48
2018-02-17T07:44:09.525Z,11.79
2018-02-17T07:46:37.114Z,12.06
2018-02-17T07:49:04.725Z,11.95
2018-02-17T07:51:32.587Z,12.19
2018-02-17T07:54:00.108Z,12.16
2018-02-17T07:56:27.701Z,12.25
2018-02-17T07:58:55.246Z,12.36
2018-02-17T08:01:22.826Z,12.47
2018-02-17T08:03:50.366Z,12.63
2018-02-17T08:06:17.976Z,12.80
2018-02-17T08:08:45.563Z,12.87
2018-02-17T08:11:13.163Z,12.91
2018-02-17T08:13:40.703Z,13.01
2018-02-17T08:16:08.574Z,12.92
2018-02-17T08:18:36.172Z,12.95
2018-02-17T08:21:03.719Z,13.08
2018-02-17T08:23:31.305Z,13.01
2018-02-17T08:25:58.895Z,13.07
2018-02-17T08:28:26.592Z,13.17
2018-02-17T08:30:54.239Z,13.12
2018-02-17T08:33:21.804Z,13.25
2018-02-17T08:35:49.391Z,13.47
2018-02-17T08:38:16.976Z,13.59
2018-02-17T08:40:45.357Z,13.68
2018-02-17T08:43:12.939Z,13.72
2018-02-17T08:45:40.523Z,13.79
2018-02-17T08:48:08.387Z,13.79
2018-02-17T08:50:35.938Z,13.84
2018-02-17T08:53:03.911Z,13.94
2018-02-17T08:55:31.468Z,13.96
2018-02-17T08:57:59.042Z,13.97
2018-02-17T09:00:26.817Z,13.87
2018-02-17T09:02:54.826Z,13.84
2018-02-17T09:05:22.449Z,13.89
2018-02-17T09:07:50.363Z,13.96
2018-02-17T09:10:18.014Z,14.00
2018-02-17T09:12:45.585Z,14.06
2018-02-17T09:15:13.130Z,14.14
2018-02-17T09:17:40.723Z,14.00
2018-02-17T09:20:08.870Z,13.67
2018-02-17T09:22:37.887Z,13.58
2018-02-17T09:25:05.474Z,13.28
2018-02-17T09:27:33.065Z,12.98
2018-02-17T09:30:00.665Z,13.14
2018-02-17T09:32:28.307Z,13.20
2018-02-17T09:34:55.896Z,13.32
2018-02-17T09:37:23.450Z,13.16
2018-02-17T09:39:51.041Z,13.15
2018-02-17T09:42:18.586Z,13.30
2018-02-17T09:44:46.179Z,13.50
2018-02-17T09:47:13.978Z,13.54
2018-02-17T09:49:41.560Z,13.60
2018-02-17T09:52:09.199Z,13.70
2018-02-17T09:54:36.742Z,13.66
2018-02-17T09:57:04.724Z,13.67
2018-02-17T09:59:32.311Z,13.78
2018-02-17T10:01:59.916Z,13.80
2018-02-17T10:04:27.508Z,13.58
2018-02-17T10:06:55.056Z,13.69
2018-02-17T10:09:22.639Z,13.82
2018-02-17T10:11:50.184Z,13.91
2018-02-17T10:14:17.791Z,13.97
2018-02-17T10:16:45.353Z,14.00
2018-02-17T10:19:12.912Z,14.11
2018-02-17T10:21:40.503Z,14.14
2018-02-17T10:24:08.096Z,14.18
2018-02-17T10:26:36.359Z,14.20
2018-02-17T10:29:04.178Z,14.22
2018-02-17T10:31:31.775Z,14.26
2018-02-17T10:33:59.805Z,14.27
2018-02-17T10:36:27.401Z,14.29
2018-02-17T10:38:54.984Z,14.32
2018-02-17T10:41:22.530Z,14.32
2018-02-17T10:43:50.122Z,14.34
2018-02-17T10:46:17.706Z,14.37
2018-02-17T10:48:45.931Z,14.38
2018-02-17T10:51:13.470Z,14.39
2018-02-17T10:53:41.071Z,14.37
2018-02-17T10:56:08.631Z,14.36
2018-02-17T10:58:36.226Z,14.37
2018-02-17T11:01:03.831Z,14.37
2018-02-17T11:03:31.419Z,14.50
2018-02-17T11:05:59.667Z,14.51
2018-02-17T11:08:27.267Z,14.48
2018-02-17T11:10:54.849Z,14.44
2018-02-17T11:13:22.422Z,14.51
2018-02-17T11:15:50.851Z,14.49
2018-02-17T11:18:18.445Z,14.44
2018-02-17T11:20:46.433Z,14.37
2018-02-17T11:23:14.494Z,14.35
2018-02-17T11:25:42.034Z,14.29
2018-02-17T11:28:09.588Z,14.27
2018-02-17T11:30:37.184Z,14.22
2018-02-17T11:33:04.735Z,14.20
2018-02-17T11:35:32.325Z,14.18
2018-02-17T11:37:59.872Z,14.15
2018-02-17T11:40:27.467Z,14.14
2018-02-17T11:42:55.010Z,14.14
2018-02-17T11:45:22.679Z,14.14
2018-02-17T11:47:50.502Z,14.11
2018-02-17T11:50:18.366Z,14.06
2018-02-17T11:52:46.433Z,14.07
2018-02-17T11:55:14.340Z,14.06
2018-02-17T11:57:42.165Z,14.06
2018-02-17T12:00:09.755Z,14.03
2018-02-17T12:02:38.154Z,14.04
2018-02-17T12:05:05.758Z,14.01
2018-02-17T12:07:34.287Z,13.99
2018-02-17T12:10:02.346Z,13.99
2018-02-17T12:12:29.938Z,13.99
2018-02-17T12:14:57.525Z,13.99
2018-02-17T12:17:25.132Z,13.99
2018-02-17T12:19:52.956Z,13.98
2018-02-17T12:22:20.668Z,13.98
2018-02-17T12:24:48.210Z,13.97
2018-02-17T12:27:15.813Z,13.97
2018-02-17T12:29:43.437Z,13.97
2018-02-17T12:32:10.978Z,13.96
2018-02-17T12:34:38.925Z,13.96
2018-02-17T12:37:06.949Z,13.96
2018-02-17T12:39:35.227Z,13.99
2018-02-17T12:42:02.816Z,14.09
2018-02-17T12:44:30.548Z,14.27
2018-02-17T12:46:58.138Z,14.51
2018-02-17T12:49:25.732Z,14.78
2018-02-17T12:51:53.310Z,15.02
2018-02-17T12:54:20.862Z,15.24
2018-02-17T12:56:48.420Z,15.44
2018-02-17T12:59:15.972Z,15.59
2018-02-17T13:01:43.723Z,15.78
2018-02-17T13:04:11.328Z,15.94
2018-02-17T13:06:38.923Z,16.09
2018-02-17T13:09:06.626Z,16.18
2018-02-17T13:11:34.244Z,16.20
2018-02-17T13:14:02.673Z,16.16
2018-02-17T13:16:30.251Z,16.11
2018-02-17T13:18:57.822Z,16.01
2018-02-17T13:21:26.098Z,15.90
2018-02-17T13:23:53.699Z,15.74
2018-02-17T13:26:21.283Z,15.59
2018-02-17T13:28:48.839Z,15.48
2018-02-17T13:31:16.426Z,15.32
2018-02-17T13:33:43.981Z,15.17
2018-02-17T13:36:12.284Z,15.02
2018-02-17T13:38:40.260Z,14.93
2018-02-17T13:41:07.810Z,14.84
2018-02-17T13:43:35.417Z,14.73
2018-02-17T13:46:02.967Z,14.62
2018-02-17T13:48:30.714Z,14.55
2018-02-17T13:50:58.882Z,14.48
2018-02-17T13:53:26.474Z,14.41
2018-02-17T13:55:54.031Z,14.33
2018-02-17T13:58:22.138Z,14.31
2018-02-17T14:00:49.742Z,14.24
2018-02-17T14:03:17.361Z,14.20
2018-02-17T14:05:45.487Z,14.16
2018-02-17T14:08:13.051Z,14.11
2018-02-17T14:10:40.690Z,14.06
2018-02-17T14:13:08.306Z,14.04
2018-02-17T14:15:35.845Z,14.01
2018-02-17T14:18:03.453Z,13.96
2018-02-17T14:20:31.209Z,13.92
2018-02-17T14:22:58.766Z,13.88
2018-02-17T14:25:26.354Z,13.86
2018-02-17T14:27:54.450Z,13.85
2018-02-17T14:30:22.000Z,13.84
2018-02-17T14:32:50.068Z,13.83
2018-02-17T14:35:17.616Z,13.83
2018-02-17T14:37:45.180Z,13.84
2018-02-17T14:40:13.207Z,13.82
2018-02-17T14:42:40.769Z,13.81
2018-02-17T14:45:08.366Z,13.79
2018-02-17T14:47:35.924Z,13.78
2018-02-17T14:50:03.742Z,13.77
2018-02-17T14:52:31.320Z,13.74
2018-02-17T14:54:58.958Z,13.73
2018-02-17T14:57:26.813Z,13.72
2018-02-17T14:59:54.483Z,13.70
2018-02-17T15:02:23.271Z,13.68
2018-02-17T15:04:51.087Z,13.65
2018-02-17T15:07:20.714Z,13.63
2018-02-17T15:09:48.262Z,13.62
2018-02-17T15:12:15.859Z,13.60
2018-02-17T15:14:44.112Z,13.57
2018-02-17T15:17:13.069Z,13.56
2018-02-17T15:19:41.052Z,13.54
2018-02-17T15:22:08.605Z,13.52
2018-02-17T15:24:37.007Z,13.51
2018-02-17T15:27:05.361Z,13.48
2018-02-17T15:29:33.342Z,13.46
2018-02-17T15:32:00.896Z,13.43
2018-02-17T15:34:28.960Z,13.37
2018-02-17T15:36:57.075Z,13.35
2018-02-17T15:39:24.645Z,13.13
2018-02-17T15:41:52.656Z,13.09
2018-02-17T15:44:20.200Z,12.89
2018-02-17T15:46:47.791Z,12.56
2018-02-17T15:49:16.144Z,12.19
2018-02-17T15:51:44.209Z,11.93
2018-02-17T15:54:14.123Z,11.86
2018-02-17T15:56:43.151Z,11.78
2018-02-17T15:59:10.788Z,11.79
2018-02-17T16:01:38.521Z,11.70
2018-02-17T16:04:06.840Z,11.70
2018-02-17T16:06:34.538Z,11.75
2018-02-17T16:09:02.122Z,11.83
2018-02-17T16:11:30.845Z,11.61
2018-02-17T16:13:58.407Z,11.29
2018-02-17T16:16:25.994Z,11.14
2018-02-17T16:18:53.690Z,10.77
2018-02-17T16:21:21.506Z,10.44
2018-02-17T16:23:49.486Z,10.52
2018-02-17T16:26:17.048Z,10.54
2018-02-17T16:28:44.653Z,10.61
2018-02-17T16:31:13.695Z,10.66
2018-02-17T16:33:41.294Z,10.32
2018-02-17T16:36:09.617Z,10.09
2018-02-17T16:38:37.741Z,9.99
2018-02-17T16:41:05.351Z,9.95
2018-02-17T16:43:32.939Z,9.81
2018-02-17T16:46:00.518Z,9.90
2018-02-17T16:48:28.874Z,9.96
2018-02-17T16:50:56.423Z,9.67
2018-02-17T16:53:24.019Z,9.57
2018-02-17T16:55:51.613Z,9.54
2018-02-17T16:58:20.097Z,9.60
2018-02-17T17:00:48.069Z,9.57
2018-02-17T17:03:16.299Z,9.78
2018-02-17T17:05:44.831Z,9.97
2018-02-17T17:08:12.604Z,10.13
2018-02-17T17:10:40.170Z,10.26
2018-02-17T17:13:08.124Z,10.32
2018-02-17T17:15:36.344Z,10.30
2018-02-17T17:18:03.934Z,10.33
2018-02-17T17:20:31.907Z,10.41
2018-02-17T17:23:00.035Z,10.43
2018-02-17T17:25:29.125Z,10.47
2018-02-17T17:27:58.677Z,10.51
2018-02-17T17:30:27.550Z,10.60
2018-02-17T17:32:55.427Z,10.67
2018-02-17T17:35:23.892Z,10.66
2018-02-17T17:37:53.128Z,10.64
2018-02-17T17:40:21.513Z,10.49
2018-02-17T17:42:49.094Z,10.05
2018-02-17T17:45:16.713Z,9.56
2018-02-17T17:47:46.052Z,9.11
2018-02-17T17:50:14.155Z,9.19
2018-02-17T17:52:41.717Z,9.40
2018-02-17T17:55:10.180Z,9.69
2018-02-17T17:57:39.146Z,9.82
2018-02-17T18:00:07.365Z,9.46
2018-02-17T18:02:35.604Z,9.38
2018-02-17T18:05:04.011Z,9.65
2018-02-17T18:07:32.219Z,9.72
2018-02-17T18:10:00.134Z,9.74
2018-02-17T18:12:27.689Z,9.86
2018-02-17T18:14:55.635Z,9.88
2018-02-17T18:17:24.561Z,9.93
2018-02-17T18:19:52.106Z,10.03
2018-02-17T18:22:20.199Z,9.98
2018-02-17T18:24:49.511Z,9.99
2018-02-17T18:27:17.811Z,9.93
2018-02-17T18:29:45.403Z,9.86
2018-02-17T18:32:13.288Z,9.13
2018-02-17T18:34:40.855Z,8.76
2018-02-17T18:37:08.939Z,8.90
2018-02-17T18:39:37.011Z,9.04
2018-02-17T18:42:04.572Z,9.04
2018-02-17T18:44:33.237Z,9.06
2018-02-17T18:47:01.768Z,8.64
2018-02-17T18:49:30.312Z,8.21
2018-02-17T18:51:59.381Z,8.25
2018-02-17T18:54:27.700Z,8.56
2018-02-17T18:56:55.247Z,8.60
2018-02-17T18:59:24.589Z,8.91
2018-02-17T19:01:52.709Z,8.99
2018-02-17T19:04:21.474Z,9.09
2018-02-17T19:06:49.169Z,9.20
2018-02-17T19:09:17.247Z,9.23
2018-02-17T19:11:45.188Z,9.25
2018-02-17T19:14:12.796Z,9.23
2018-02-17T19:16:40.397Z,9.28
2018-02-17T19:19:07.999Z,9.14
2018-02-17T19:21:35.542Z,9.16
2018-02-17T19:24:03.878Z,9.27
2018-02-17T19:26:31.433Z,9.38
2018-02-17T19:28:58.992Z,9.05
2018-02-17T19:31:26.583Z,8.61
2018-02-17T19:33:55.132Z,8.43
2018-02-17T19:36:23.044Z,8.75
2018-02-17T19:38:50.663Z,9.07
2018-02-17T19:41:18.240Z,9.25
2018-02-17T19:43:46.703Z,9.36
2018-02-17T19:46:14.296Z,9.29
2018-02-17T19:48:43.498Z,9.23
2018-02-17T19:51:11.640Z,8.90
2018-02-17T19:53:39.238Z,8.31
2018-02-17T19:56:08.897Z,8.20
2018-02-17T19:58:37.164Z,8.50
2018-02-17T20:01:04.735Z,8.73
2018-02-17T20:03:32.591Z,8.95
2018-02-17T20:06:00.152Z,9.10
2018-02-17T20:08:28.375Z,9.21
2018-02-17T20:10:56.899Z,9.25
2018-02-17T20:13:25.342Z,9.27
2018-02-17T20:15:55.320Z,8.56
2018-02-17T20:18:22.917Z,7.99
2018-02-17T20:20:52.482Z,8.25
2018-02-17T20:23:20.440Z,8.53
2018-02-17T20:25:49.055Z,8.79
2018-02-17T20:28:17.231Z,8.92
2018-02-17T20:30:46.470Z,9.02
2018-02-17T20:33:14.024Z,9.09
2018-02-17T20:35:41.681Z,9.08
2018-02-17T20:38:09.727Z,9.08
2018-02-17T20:40:37.291Z,8.18
2018-02-17T20:43:05.839Z,8.10
2018-02-17T20:45:33.480Z,8.07
2018-02-17T20:48:01.355Z,7.84
2018-02-17T20:50:28.908Z,8.09
2018-02-17T20:52:57.219Z,8.01
2018-02-17T20:55:25.348Z,8.28
2018-02-17T20:57:53.246Z,8.30
2018-02-17T21:00:22.175Z,7.63
2018-02-17T21:02:50.337Z,7.18
2018-02-17T21:05:18.460Z,6.67
2018-02-17T21:07:46.435Z,6.73
2018-02-17T21:10:14.787Z,6.69
2018-02-17T21:12:42.854Z,5.96
2018-02-17T21:15:12.007Z,5.58
2018-02-17T21:17:40.148Z,5.61
2018-02-17T21:20:08.346Z,5.50
2018-02-17T21:22:35.978Z,5.42
2018-02-17T21:25:03.970Z,5.05
2018-02-17T21:27:31.545Z,4.98
2018-02-17T21:29:59.396Z,5.08
2018-02-17T21:32:26.986Z,4.98
2018-02-17T21:34:54.569Z,5.08
2018-02-17T21:37:22.755Z,5.37
2018-02-17T21:39:50.468Z,5.90
2018-02-17T21:42:18.059Z,6.48
2018-02-17T21:44:46.042Z,6.98
2018-02-17T21:47:15.065Z,7.33
2018-02-17T21:49:42.664Z,7.63
2018-02-17T21:52:10.431Z,7.85
2018-02-17T21:54:38.093Z,8.03
2018-02-17T21:57:05.735Z,8.06
2018-02-17T21:59:33.405Z,8.10
2018-02-17T22:02:02.230Z,7.98
2018-02-17T22:04:29.814Z,8.07
2018-02-17T22:06:57.358Z,8.21
2018-02-17T22:09:25.047Z,7.93
2018-02-17T22:11:53.450Z,7.28
2018-02-17T22:14:21.092Z,7.63
2018-02-17T22:16:48.702Z,7.89
2018-02-17T22:19:16.435Z,7.81
2018-02-17T22:21:44.251Z,7.92
2018-02-17T22:24:12.051Z,8.08
2018-02-17T22:26:40.687Z,8.24
2018-02-17T22:29:08.235Z,8.28
2018-02-17T22:31:35.840Z,8.30
2018-02-17T22:34:03.389Z,7.68
2018-02-17T22:36:30.952Z,6.90
2018-02-17T22:38:58.556Z,6.78
2018-02-17T22:41:26.093Z,6.76
2018-02-17T22:43:53.692Z,6.70
2018-02-17T22:46:21.253Z,6.35
2018-02-17T22:48:48.806Z,5.97
2018-02-17T22:51:16.401Z,5.62
2018-02-17T22:53:43.946Z,5.59
2018-02-17T22:56:11.543Z,5.44
2018-02-17T22:58:39.090Z,5.38
2018-02-17T23:01:06.693Z,5.34
2018-02-17T23:03:34.246Z,5.07
2018-02-17T23:06:01.831Z,5.36
2018-02-17T23:08:29.426Z,5.64
2018-02-17T23:10:57.917Z,5.71
2018-02-17T23:13:25.516Z,5.82
2018-02-17T23:15:53.072Z,5.53
2018-02-17T23:18:20.655Z,5.34
2018-02-17T23:20:48.207Z,5.32
2018-02-17T23:23:15.798Z,5.34
2018-02-17T23:25:43.389Z,5.30
2018-02-17T23:28:10.955Z,5.70
2018-02-17T23:30:38.565Z,6.20
2018-02-17T23:33:06.113Z,6.63
2018-02-17T23:35:33.662Z,7.02
2018-02-17T23:38:01.255Z,7.23
2018-02-17T23:40:28.802Z,7.42
2018-02-17T23:42:56.874Z,7.46
2018-02-17T23:45:24.474Z,7.43
2018-02-17T23:47:52.089Z,7.58
2018-02-17T23:50:19.651Z,7.57
2018-02-17T23:52:47.247Z,7.50
2018-02-17T23:55:15.589Z,7.45
2018-02-17T23:57:43.186Z,7.48
